Погода Трайрина неделю

Сеара, Бразилия

17 - 23 июля
  • 17июля
    Сегодня
    +24°
    +31°
    Ясно и безоблачно
    ВремяПогодаТемператураВлажностьДавлениеВетер, м/сВероятность осадков
    00:00Ясно и безоблачно+26°C81 %762 мм4.2 м/с5 %
    03:00Ясно и безоблачно+26°C74 %761 мм5.2 м/с5 %
    06:00Ясно и безоблачно+24°C70 %762 мм5.1 м/с5 %
    09:00Ясно и безоблачно+28°C58 %762 мм6.1 м/с5 %
    12:00Ясно и безоблачно+30°C46 %761 мм6.5 м/с5 %
    15:00Ясно и безоблачно+29°C55 %759 мм7.5 м/с5 %
    18:00Ясно и безоблачно+27°C73 %760 мм5.5 м/с5 %
    21:00Ясно и безоблачно+27°C82 %761 мм5.3 м/с5 %
  • 18июля
    Четверг
    +24°
    +31°
    Ясно и безоблачно
    ВремяПогодаТемператураВлажностьДавлениеВетер, м/сВероятность осадков
    00:00Ясно и безоблачно+26°C82 %761 мм5.2 м/с5 %
    03:00Ясно и безоблачно+26°C82 %760 мм6.0 м/с14 %
    06:00Ясно и безоблачно+24°C79 %761 мм5.3 м/с4 %
    09:00Ясно и безоблачно+28°C58 %762 мм5.5 м/с3 %
    12:00Небольшая облачность+30°C47 %761 мм5.8 м/с5 %
    15:00Ясно и безоблачно+29°C61 %759 мм6.2 м/с2 %
    18:00Ясно и безоблачно+27°C78 %760 мм5.2 м/с3 %
    21:00Ясно и безоблачно+27°C83 %761 мм4.4 м/с3 %
  • 19июля
    Пятница
    +24°
    +31°
    Ясно и безоблачно
    ВремяПогодаТемператураВлажностьДавлениеВетер, м/сВероятность осадков
    00:00Практически безоблачно+26°C86 %762 мм4.7 м/с5 %
    03:00Практически безоблачно+26°C83 %760 мм4.6 м/с27 %
    06:00Ясно и безоблачно+25°C86 %761 мм5.0 м/с17 %
    09:00Ясно и безоблачно+28°C63 %762 мм5.4 м/с7 %
    12:00Практически безоблачно+31°C50 %761 мм6.0 м/с5 %
    15:00Ясно и безоблачно+30°C60 %759 мм6.4 м/с4 %
    18:00Ясно и безоблачно+27°C80 %760 мм5.3 м/с5 %
    21:00Ясно и безоблачно+27°C85 %762 мм5.0 м/с5 %
  • 20июля
    Суббота
    +24°
    +32°
    Практически безоблачно
    ВремяПогодаТемператураВлажностьДавлениеВетер, м/сВероятность осадков
    00:00Практически безоблачно+26°C87 %761 мм4.7 м/с27 %
    03:00Небольшая облачность и лёгкий дождик+26°C80 %760 мм6.0 м/с59 %
    06:00Ясно и безоблачно+25°C82 %761 мм4.8 м/с35 %
    09:00Ясно и безоблачно+28°C58 %762 мм6.4 м/с5 %
    12:00Ясно и безоблачно+31°C46 %761 мм5.8 м/с5 %
    15:00Практически безоблачно+29°C63 %759 мм5.9 м/с5 %
    18:00Ясно и безоблачно+27°C78 %759 мм6.0 м/с5 %
    21:00Ясно и безоблачно+27°C82 %761 мм5.3 м/с5 %
  • 21июля
    Воскресенье
    +24°
    +31°
    Ясно и безоблачно
    ВремяПогодаТемператураВлажностьДавлениеВетер, м/сВероятность осадков
    00:00Ясно и безоблачно+26°C82 %761 мм5.2 м/с13 %
    03:00Практически безоблачно+26°C78 %760 мм5.2 м/с26 %
    06:00Ясно и безоблачно+25°C71 %760 мм5.3 м/с3 %
    09:00Ясно и безоблачно+28°C50 %761 мм6.3 м/с5 %
    12:00Ясно и безоблачно+31°C42 %760 мм6.4 м/с5 %
    15:00Ясно и безоблачно+29°C57 %758 мм6.8 м/с5 %
    18:00Ясно и безоблачно+27°C76 %759 мм5.9 м/с5 %
    21:00Ясно и безоблачно+27°C77 %761 мм5.3 м/с5 %
Мы используем cookies
Соглашаюсь